sensor_id;sensor_type;location;lat;lon;timestamp;pressure;altitude;pressure_sealevel;temperature;humidity
5062;BME280;2351;50.812;12.872;2024-02-04T00:01:47;98294.41;;;5.94;100.00
5062;BME280;2351;50.812;12.872;2024-02-04T00:04:19;98301.34;;;5.95;100.00
5062;BME280;2351;50.812;12.872;2024-02-04T00:06:51;98296.72;;;5.98;100.00
5062;BME280;2351;50.812;12.872;2024-02-04T00:09:22;98292.59;;;5.94;100.00
5062;BME280;2351;50.812;12.872;2024-02-04T00:11:56;98291.47;;;5.98;100.00
5062;BME280;2351;50.812;12.872;2024-02-04T00:14:29;98287.84;;;6.01;100.00
5062;BME280;2351;50.812;12.872;2024-02-04T00:17:00;98295.66;;;6.02;100.00
5062;BME280;2351;50.812;12.872;2024-02-04T00:19:32;98308.84;;;6.01;100.00
5062;BME280;2351;50.812;12.872;2024-02-04T00:22:04;98303.69;;;5.99;100.00
5062;BME280;2351;50.812;12.872;2024-02-04T00:24:35;98297.41;;;6.02;100.00
5062;BME280;2351;50.812;12.872;2024-02-04T00:27:08;98297.53;;;6.00;100.00
5062;BME280;2351;50.812;12.872;2024-02-04T00:29:40;98284.38;;;6.00;100.00
5062;BME280;2351;50.812;12.872;2024-02-04T00:32:12;98294.88;;;6.00;100.00
5062;BME280;2351;50.812;12.872;2024-02-04T00:34:43;98301.91;;;6.00;100.00
5062;BME280;2351;50.812;12.872;2024-02-04T00:37:15;98300.19;;;5.99;100.00
5062;BME280;2351;50.812;12.872;2024-02-04T00:39:47;98297.53;;;6.00;100.00
5062;BME280;2351;50.812;12.872;2024-02-04T00:42:20;98312.56;;;5.97;100.00
5062;BME280;2351;50.812;12.872;2024-02-04T00:44:52;98317.75;;;5.98;100.00
5062;BME280;2351;50.812;12.872;2024-02-04T00:47:23;98304.63;;;5.98;100.00
5062;BME280;2351;50.812;12.872;2024-02-04T00:49:56;98292.31;;;5.99;100.00
5062;BME280;2351;50.812;12.872;2024-02-04T00:52:27;98301.06;;;5.99;100.00
5062;BME280;2351;50.812;12.872;2024-02-04T00:54:59;98294.28;;;5.95;100.00
5062;BME280;2351;50.812;12.872;2024-02-04T00:57:32;98292.72;;;5.93;100.00
5062;BME280;2351;50.812;12.872;2024-02-04T01:00:05;98295.53;;;5.90;100.00
5062;BME280;2351;50.812;12.872;2024-02-04T01:02:38;98289.22;;;5.92;100.00
5062;BME280;2351;50.812;12.872;2024-02-04T01:05:09;98291.03;;;5.92;100.00
5062;BME280;2351;50.812;12.872;2024-02-04T01:07:41;98297.09;;;5.92;100.00
5062;BME280;2351;50.812;12.872;2024-02-04T01:10:13;98288.47;;;5.90;100.00
5062;BME280;2351;50.812;12.872;2024-02-04T01:12:46;98295.59;;;5.88;100.00
5062;BME280;2351;50.812;12.872;2024-02-04T01:15:18;98286.97;;;5.86;100.00
5062;BME280;2351;50.812;12.872;2024-02-04T01:17:49;98294.00;;;5.85;100.00
5062;BME280;2351;50.812;12.872;2024-02-04T01:20:22;98297.69;;;5.83;100.00
5062;BME280;2351;50.812;12.872;2024-02-04T01:22:53;98294.19;;;5.82;100.00
5062;BME280;2351;50.812;12.872;2024-02-04T01:25:25;98301.44;;;5.79;100.00
5062;BME280;2351;50.812;12.872;2024-02-04T01:27:58;98293.72;;;5.76;100.00
5062;BME280;2351;50.812;12.872;2024-02-04T01:30:30;98296.53;;;5.72;100.00
5062;BME280;2351;50.812;12.872;2024-02-04T01:33:02;98292.16;;;5.73;100.00
5062;BME280;2351;50.812;12.872;2024-02-04T01:35:33;98291.41;;;5.71;100.00
5062;BME280;2351;50.812;12.872;2024-02-04T01:38:05;98299.34;;;5.69;100.00
5062;BME280;2351;50.812;12.872;2024-02-04T01:40:37;98286.50;;;5.65;100.00
5062;BME280;2351;50.812;12.872;2024-02-04T01:43:10;98277.97;;;5.61;100.00
5062;BME280;2351;50.812;12.872;2024-02-04T01:45:41;98271.03;;;5.60;100.00
5062;BME280;2351;50.812;12.872;2024-02-04T01:48:13;98267.66;;;5.58;100.00
5062;BME280;2351;50.812;12.872;2024-02-04T01:50:46;98278.16;;;5.58;100.00
5062;BME280;2351;50.812;12.872;2024-02-04T01:53:21;98269.25;;;5.61;100.00
5062;BME280;2351;50.812;12.872;2024-02-04T01:55:54;98267.06;;;5.67;100.00
5062;BME280;2351;50.812;12.872;2024-02-04T01:58:27;98252.06;;;5.69;100.00
5062;BME280;2351;50.812;12.872;2024-02-04T02:00:59;98254.53;;;5.72;100.00
5062;BME280;2351;50.812;12.872;2024-02-04T02:03:31;98263.97;;;5.75;100.00
5062;BME280;2351;50.812;12.872;2024-02-04T02:06:04;98260.22;;;5.79;100.00
5062;BME280;2351;50.812;12.872;2024-02-04T02:08:36;98253.09;;;5.81;100.00
5062;BME280;2351;50.812;12.872;2024-02-04T02:11:13;98257.41;;;5.82;100.00
5062;BME280;2351;50.812;12.872;2024-02-04T02:13:57;98254.59;;;5.85;100.00
5062;BME280;2351;50.812;12.872;2024-02-04T02:16:32;98257.13;;;5.87;100.00
5062;BME280;2351;50.812;12.872;2024-02-04T02:19:12;98259.69;;;5.88;100.00
5062;BME280;2351;50.812;12.872;2024-02-04T02:21:52;98256.19;;;5.88;100.00
5062;BME280;2351;50.812;12.872;2024-02-04T02:24:33;98240.25;;;5.91;100.00
5062;BME280;2351;50.812;12.872;2024-02-04T02:27:04;98234.91;;;5.93;100.00
5062;BME280;2351;50.812;12.872;2024-02-04T02:29:36;98228.91;;;5.91;100.00
5062;BME280;2351;50.812;12.872;2024-02-04T02:32:08;98227.84;;;5.93;100.00
5062;BME280;2351;50.812;12.872;2024-02-04T02:34:40;98228.72;;;5.94;100.00
5062;BME280;2351;50.812;12.872;2024-02-04T02:37:21;98235.66;;;5.95;100.00
5062;BME280;2351;50.812;12.872;2024-02-04T02:39:59;98228.59;;;5.95;100.00
5062;BME280;2351;50.812;12.872;2024-02-04T02:42:34;98233.03;;;5.95;100.00
5062;BME280;2351;50.812;12.872;2024-02-04T02:45:08;98231.41;;;5.92;100.00
5062;BME280;2351;50.812;12.872;2024-02-04T02:47:41;98222.72;;;5.92;100.00
5062;BME280;2351;50.812;12.872;2024-02-04T02:50:14;98234.06;;;5.92;100.00
5062;BME280;2351;50.812;12.872;2024-02-04T02:52:46;98230.47;;;5.93;100.00
5062;BME280;2351;50.812;12.872;2024-02-04T02:55:19;98238.28;;;5.95;100.00
5062;BME280;2351;50.812;12.872;2024-02-04T02:57:51;98251.31;;;5.96;100.00
5062;BME280;2351;50.812;12.872;2024-02-04T03:00:22;98244.97;;;6.00;100.00
5062;BME280;2351;50.812;12.872;2024-02-04T03:02:54;98250.13;;;6.02;100.00
5062;BME280;2351;50.812;12.872;2024-02-04T03:05:26;98255.94;;;6.07;100.00
5062;BME280;2351;50.812;12.872;2024-02-04T03:07:58;98253.41;;;6.06;100.00
5062;BME280;2351;50.812;12.872;2024-02-04T03:10:31;98268.25;;;6.07;100.00
5062;BME280;2351;50.812;12.872;2024-02-04T03:13:03;98270.19;;;6.03;100.00
5062;BME280;2351;50.812;12.872;2024-02-04T03:15:36;98253.69;;;6.01;100.00
5062;BME280;2351;50.812;12.872;2024-02-04T03:18:07;98256.31;;;6.01;100.00
5062;BME280;2351;50.812;12.872;2024-02-04T03:20:39;98247.59;;;6.00;100.00
5062;BME280;2351;50.812;12.872;2024-02-04T03:23:12;98255.53;;;5.99;100.00
5062;BME280;2351;50.812;12.872;2024-02-04T03:25:45;98246.72;;;6.00;100.00
5062;BME280;2351;50.812;12.872;2024-02-04T03:28:16;98250.56;;;5.94;100.00
5062;BME280;2351;50.812;12.872;2024-02-04T03:30:49;98263.69;;;5.94;100.00
5062;BME280;2351;50.812;12.872;2024-02-04T03:33:21;98254.50;;;5.87;100.00
5062;BME280;2351;50.812;12.872;2024-02-04T03:35:52;98250.19;;;5.86;100.00
5062;BME280;2351;50.812;12.872;2024-02-04T03:38:24;98253.09;;;5.81;100.00
5062;BME280;2351;50.812;12.872;2024-02-04T03:40:58;98257.72;;;5.78;100.00
5062;BME280;2351;50.812;12.872;2024-02-04T03:43:30;98254.63;;;5.71;100.00
5062;BME280;2351;50.812;12.872;2024-02-04T03:46:01;98249.56;;;5.68;100.00
5062;BME280;2351;50.812;12.872;2024-02-04T03:48:33;98245.41;;;5.64;100.00
5062;BME280;2351;50.812;12.872;2024-02-04T03:51:06;98245.41;;;5.64;100.00
5062;BME280;2351;50.812;12.872;2024-02-04T03:53:37;98244.03;;;5.58;100.00
5062;BME280;2351;50.812;12.872;2024-02-04T03:56:11;98242.41;;;5.55;100.00
5062;BME280;2351;50.812;12.872;2024-02-04T03:58:42;98234.81;;;5.51;100.00
5062;BME280;2351;50.812;12.872;2024-02-04T04:01:14;98231.06;;;5.55;100.00
5062;BME280;2351;50.812;12.872;2024-02-04T04:03:46;98231.91;;;5.55;100.00
5062;BME280;2351;50.812;12.872;2024-02-04T04:06:17;98229.38;;;5.54;100.00
5062;BME280;2351;50.812;12.872;2024-02-04T04:08:49;98237.09;;;5.57;100.00
5062;BME280;2351;50.812;12.872;2024-02-04T04:11:22;98229.03;;;5.60;100.00
5062;BME280;2351;50.812;12.872;2024-02-04T04:13:54;98239.22;;;5.65;100.00
5062;BME280;2351;50.812;12.872;2024-02-04T04:16:25;98226.84;;;5.67;100.00
5062;BME280;2351;50.812;12.872;2024-02-04T04:18:57;98236.25;;;5.71;100.00
5062;BME280;2351;50.812;12.872;2024-02-04T04:21:29;98228.25;;;5.72;100.00
5062;BME280;2351;50.812;12.872;2024-02-04T04:24:01;98232.38;;;5.77;100.00
5062;BME280;2351;50.812;12.872;2024-02-04T04:26:34;98235.00;;;5.77;100.00
5062;BME280;2351;50.812;12.872;2024-02-04T04:29:07;98225.34;;;5.77;100.00
5062;BME280;2351;50.812;12.872;2024-02-04T04:31:38;98215.56;;;5.79;100.00
5062;BME280;2351;50.812;12.872;2024-02-04T04:34:10;98206.88;;;5.79;100.00
5062;BME280;2351;50.812;12.872;2024-02-04T04:36:42;98209.09;;;5.85;100.00
5062;BME280;2351;50.812;12.872;2024-02-04T04:39:13;98204.59;;;5.87;100.00
5062;BME280;2351;50.812;12.872;2024-02-04T04:41:47;98181.50;;;5.92;100.00
5062;BME280;2351;50.812;12.872;2024-02-04T04:44:18;98185.06;;;5.91;100.00
5062;BME280;2351;50.812;12.872;2024-02-04T04:46:50;98191.72;;;5.97;100.00
5062;BME280;2351;50.812;12.872;2024-02-04T04:49:22;98184.56;;;5.99;100.00
5062;BME280;2351;50.812;12.872;2024-02-04T04:51:53;98178.41;;;6.00;100.00
5062;BME280;2351;50.812;12.872;2024-02-04T04:54:27;98187.06;;;6.02;100.00
5062;BME280;2351;50.812;12.872;2024-02-04T04:57:00;98189.69;;;6.02;100.00
5062;BME280;2351;50.812;12.872;2024-02-04T04:59:32;98201.13;;;6.01;100.00
5062;BME280;2351;50.812;12.872;2024-02-04T05:02:06;98189.69;;;6.02;100.00
5062;BME280;2351;50.812;12.872;2024-02-04T05:04:38;98195.69;;;6.04;100.00
5062;BME280;2351;50.812;12.872;2024-02-04T05:07:09;98187.06;;;6.02;100.00
5062;BME280;2351;50.812;12.872;2024-02-04T05:09:41;98179.28;;;6.00;100.00
5062;BME280;2351;50.812;12.872;2024-02-04T05:12:14;98162.66;;;6.00;100.00
5062;BME280;2351;50.812;12.872;2024-02-04T05:14:45;98161.78;;;5.99;100.00
5062;BME280;2351;50.812;12.872;2024-02-04T05:17:17;98159.25;;;5.98;100.00
5062;BME280;2351;50.812;12.872;2024-02-04T05:19:49;98153.91;;;5.99;100.00
5062;BME280;2351;50.812;12.872;2024-02-04T05:22:20;98156.47;;;6.01;100.00
5062;BME280;2351;50.812;12.872;2024-02-04T05:24:52;98152.31;;;5.97;100.00
5062;BME280;2351;50.812;12.872;2024-02-04T05:27:25;98136.53;;;5.97;100.00
5062;BME280;2351;50.812;12.872;2024-02-04T05:29:57;98134.03;;;5.95;100.00
5062;BME280;2351;50.812;12.872;2024-02-04T05:32:29;98120.13;;;5.93;100.00
5062;BME280;2351;50.812;12.872;2024-02-04T05:35:00;98127.94;;;5.95;100.00
5062;BME280;2351;50.812;12.872;2024-02-04T05:37:32;98122.38;;;5.99;100.00
5062;BME280;2351;50.812;12.872;2024-02-04T05:40:05;98137.03;;;6.03;100.00
5062;BME280;2351;50.812;12.872;2024-02-04T05:42:38;98124.66;;;6.06;100.00
5062;BME280;2351;50.812;12.872;2024-02-04T05:45:10;98134.31;;;6.05;100.00
5062;BME280;2351;50.812;12.872;2024-02-04T05:47:42;98134.22;;;6.07;100.00
5062;BME280;2351;50.812;12.872;2024-02-04T05:50:14;98131.59;;;6.07;100.00
5062;BME280;2351;50.812;12.872;2024-02-04T05:52:45;98134.00;;;6.10;100.00
5062;BME280;2351;50.812;12.872;2024-02-04T05:55:17;98122.53;;;6.11;100.00
5062;BME280;2351;50.812;12.872;2024-02-04T05:57:50;98121.59;;;6.12;100.00
5062;BME280;2351;50.812;12.872;2024-02-04T06:00:23;98127.72;;;6.12;100.00
5062;BME280;2351;50.812;12.872;2024-02-04T06:02:54;98140.00;;;6.12;100.00
5062;BME280;2351;50.812;12.872;2024-02-04T06:05:26;98143.56;;;6.11;100.00
5062;BME280;2351;50.812;12.872;2024-02-04T06:07:58;98149.69;;;6.11;100.00
5062;BME280;2351;50.812;12.872;2024-02-04T06:10:29;98144.88;;;6.18;100.00
5062;BME280;2351;50.812;12.872;2024-02-04T06:13:03;98136.03;;;6.19;100.00
5062;BME280;2351;50.812;12.872;2024-02-04T06:15:34;98135.09;;;6.20;100.00
5062;BME280;2351;50.812;12.872;2024-02-04T06:18:06;98134.72;;;6.26;100.00
5062;BME280;2351;50.812;12.872;2024-02-04T06:20:38;98120.63;;;6.27;100.00
5062;BME280;2351;50.812;12.872;2024-02-04T06:23:10;98119.56;;;6.30;100.00
5062;BME280;2351;50.812;12.872;2024-02-04T06:25:42;98117.88;;;6.29;100.00
5062;BME280;2351;50.812;12.872;2024-02-04T06:28:15;98119.44;;;6.31;100.00
5062;BME280;2351;50.812;12.872;2024-02-04T06:30:47;98112.97;;;6.37;100.00
5062;BME280;2351;50.812;12.872;2024-02-04T06:33:19;98117.16;;;6.40;100.00
5062;BME280;2351;50.812;12.872;2024-02-04T06:35:51;98116.97;;;6.43;100.00
5062;BME280;2351;50.812;12.872;2024-02-04T06:38:22;98107.09;;;6.46;100.00
5062;BME280;2351;50.812;12.872;2024-02-04T06:40:54;98110.38;;;6.50;100.00
5062;BME280;2351;50.812;12.872;2024-02-04T06:43:27;98106.06;;;6.49;100.00
5062;BME280;2351;50.812;12.872;2024-02-04T06:45:59;98103.50;;;6.47;100.00
5062;BME280;2351;50.812;12.872;2024-02-04T06:48:30;98111.41;;;6.47;100.00
5062;BME280;2351;50.812;12.872;2024-02-04T06:51:02;98118.34;;;6.48;100.00
5062;BME280;2351;50.812;12.872;2024-02-04T06:53:34;98111.31;;;6.49;100.00
5062;BME280;2351;50.812;12.872;2024-02-04T06:56:06;98113.81;;;6.51;100.00
5062;BME280;2351;50.812;12.872;2024-02-04T06:58:39;98123.53;;;6.50;100.00
5062;BME280;2351;50.812;12.872;2024-02-04T07:01:11;98119.91;;;6.51;100.00
5062;BME280;2351;50.812;12.872;2024-02-04T07:03:43;98118.34;;;6.48;100.00
5062;BME280;2351;50.812;12.872;2024-02-04T07:06:14;98133.28;;;6.48;100.00
5062;BME280;2351;50.812;12.872;2024-02-04T07:08:46;98134.97;;;6.49;100.00
5062;BME280;2351;50.812;12.872;2024-02-04T07:11:18;98132.97;;;6.53;100.00
5062;BME280;2351;50.812;12.872;2024-02-04T07:13:51;98123.28;;;6.53;100.00
5062;BME280;2351;50.812;12.872;2024-02-04T07:16:29;98116.34;;;6.52;100.00
5062;BME280;2351;50.812;12.872;2024-02-04T07:19:00;98128.66;;;6.52;100.00
5062;BME280;2351;50.812;12.872;2024-02-04T07:21:33;98125.84;;;6.55;100.00
5062;BME280;2351;50.812;12.872;2024-02-04T07:24:05;98113.50;;;6.55;100.00
5062;BME280;2351;50.812;12.872;2024-02-04T07:26:37;98104.69;;;6.56;100.00
5062;BME280;2351;50.812;12.872;2024-02-04T07:29:10;98120.38;;;6.58;100.00
5062;BME280;2351;50.812;12.872;2024-02-04T07:31:42;98117.41;;;6.62;100.00
5062;BME280;2351;50.812;12.872;2024-02-04T07:34:13;98118.16;;;6.65;100.00
5062;BME280;2351;50.812;12.872;2024-02-04T07:36:45;98110.47;;;6.61;100.00
5062;BME280;2351;50.812;12.872;2024-02-04T07:39:17;98117.22;;;6.66;100.00
5062;BME280;2351;50.812;12.872;2024-02-04T07:41:49;98110.91;;;6.68;100.00
5062;BME280;2351;50.812;12.872;2024-02-04T07:44:22;98107.31;;;6.69;100.00
5062;BME280;2351;50.812;12.872;2024-02-04T07:46:54;98099.97;;;6.74;100.00
5062;BME280;2351;50.812;12.872;2024-02-04T07:49:26;98099.66;;;6.79;100.00
5062;BME280;2351;50.812;12.872;2024-02-04T07:51:58;98089.13;;;6.79;100.00
5062;BME280;2351;50.812;12.872;2024-02-04T07:54:29;98098.69;;;6.80;100.00
5062;BME280;2351;50.812;12.872;2024-02-04T07:57:01;98103.88;;;6.82;100.00
5062;BME280;2351;50.812;12.872;2024-02-04T07:59:34;98105.44;;;6.84;100.00
5062;BME280;2351;50.812;12.872;2024-02-04T08:02:06;98105.88;;;6.91;100.00
5062;BME280;2351;50.812;12.872;2024-02-04T08:04:40;98108.41;;;6.92;100.00
5062;BME280;2351;50.812;12.872;2024-02-04T08:07:11;98106.72;;;6.91;100.00
5062;BME280;2351;50.812;12.872;2024-02-04T08:09:43;98103.03;;;6.94;100.00
5062;BME280;2351;50.812;12.872;2024-02-04T08:12:15;98091.66;;;6.93;100.00
5062;BME280;2351;50.812;12.872;2024-02-04T08:14:48;98105.66;;;6.94;100.00
5062;BME280;2351;50.812;12.872;2024-02-04T08:17:20;98100.28;;;6.96;100.00
5062;BME280;2351;50.812;12.872;2024-02-04T08:19:51;98087.34;;;6.92;100.00
5062;BME280;2351;50.812;12.872;2024-02-04T08:22:23;98099.31;;;6.97;100.00
5062;BME280;2351;50.812;12.872;2024-02-04T08:24:55;98099.25;;;6.98;100.00
5062;BME280;2351;50.812;12.872;2024-02-04T08:27:26;98100.81;;;7.01;100.00
5062;BME280;2351;50.812;12.872;2024-02-04T08:30:00;98091.63;;;7.06;100.00
5062;BME280;2351;50.812;12.872;2024-02-04T08:32:31;98089.88;;;7.07;100.00
5062;BME280;2351;50.812;12.872;2024-02-04T08:35:04;98086.50;;;7.05;100.00
5062;BME280;2351;50.812;12.872;2024-02-04T08:37:36;98082.19;;;7.04;100.00
5062;BME280;2351;50.812;12.872;2024-02-04T08:40:09;98092.50;;;7.07;100.00
5062;BME280;2351;50.812;12.872;2024-02-04T08:42:41;98096.69;;;7.09;100.00
5062;BME280;2351;50.812;12.872;2024-02-04T08:45:15;98086.91;;;7.12;100.00
5062;BME280;2351;50.812;12.872;2024-02-04T08:47:46;98086.69;;;7.15;100.00
5062;BME280;2351;50.812;12.872;2024-02-04T08:50:18;98097.84;;;7.18;100.00
5062;BME280;2351;50.812;12.872;2024-02-04T08:52:50;98097.53;;;7.23;100.00
5062;BME280;2351;50.812;12.872;2024-02-04T08:55:22;98083.94;;;7.29;100.00
5062;BME280;2351;50.812;12.872;2024-02-04T08:57:53;98087.41;;;7.30;100.00
5062;BME280;2351;50.812;12.872;2024-02-04T09:00:26;98098.91;;;7.29;100.00
5062;BME280;2351;50.812;12.872;2024-02-04T09:02:58;98092.69;;;7.30;100.00
5062;BME280;2351;50.812;12.872;2024-02-04T09:05:30;98091.53;;;7.34;100.00
5062;BME280;2351;50.812;12.872;2024-02-04T09:08:02;98086.34;;;7.32;100.00
5062;BME280;2351;50.812;12.872;2024-02-04T09:10:33;98089.63;;;7.36;100.00
5062;BME280;2351;50.812;12.872;2024-02-04T09:13:05;98082.47;;;7.38;100.00
5062;BME280;2351;50.812;12.872;2024-02-04T09:15:38;98075.50;;;7.37;100.00
5062;BME280;2351;50.812;12.872;2024-02-04T09:18:10;98076.25;;;7.39;100.00
5062;BME280;2351;50.812;12.872;2024-02-04T09:20:42;98064.72;;;7.40;100.00
5062;BME280;2351;50.812;12.872;2024-02-04T09:23:13;98054.63;;;7.47;100.00
5062;BME280;2351;50.812;12.872;2024-02-04T09:25:45;98059.78;;;7.48;100.00
5062;BME280;2351;50.812;12.872;2024-02-04T09:28:17;98070.69;;;7.55;100.00
5062;BME280;2351;50.812;12.872;2024-02-04T09:30:50;98079.13;;;7.60;100.00
5062;BME280;2351;50.812;12.872;2024-02-04T09:33:21;98080.47;;;7.66;100.00
5062;BME280;2351;50.812;12.872;2024-02-04T09:35:53;98084.97;;;7.77;100.00
5062;BME280;2351;50.812;12.872;2024-02-04T09:38:25;98079.13;;;7.84;100.00
5062;BME280;2351;50.812;12.872;2024-02-04T09:40:56;98085.59;;;7.80;100.00
5062;BME280;2351;50.812;12.872;2024-02-04T09:43:29;98093.50;;;7.80;100.00
5062;BME280;2351;50.812;12.872;2024-02-04T09:46:03;98100.91;;;7.75;100.00
5062;BME280;2351;50.812;12.872;2024-02-04T09:48:36;98090.56;;;7.72;100.00
5062;BME280;2351;50.812;12.872;2024-02-04T09:51:09;98077.53;;;7.71;100.00
5062;BME280;2351;50.812;12.872;2024-02-04T09:53:44;98085.31;;;7.72;100.00
5062;BME280;2351;50.812;12.872;2024-02-04T09:56:16;98081.72;;;7.73;100.00
5062;BME280;2351;50.812;12.872;2024-02-04T09:58:49;98086.25;;;7.71;100.00
5062;BME280;2351;50.812;12.872;2024-02-04T10:01:24;98097.00;;;7.68;100.00
5062;BME280;2351;50.812;12.872;2024-02-04T10:03:57;98084.38;;;7.60;100.00
5062;BME280;2351;50.812;12.872;2024-02-04T10:06:29;98076.09;;;7.53;100.00
5062;BME280;2351;50.812;12.872;2024-02-04T10:09:01;98081.78;;;7.47;100.00
5062;BME280;2351;50.812;12.872;2024-02-04T10:11:33;98080.53;;;7.40;100.00
5062;BME280;2351;50.812;12.872;2024-02-04T10:14:04;98080.78;;;7.37;100.00
5062;BME280;2351;50.812;12.872;2024-02-04T10:16:40;98062.44;;;7.35;100.00
5062;BME280;2351;50.812;12.872;2024-02-04T10:19:12;98058.84;;;7.36;100.00
5062;BME280;2351;50.812;12.872;2024-02-04T10:21:43;98056.13;;;7.38;100.00
5062;BME280;2351;50.812;12.872;2024-02-04T10:24:15;98049.19;;;7.37;100.00
5062;BME280;2351;50.812;12.872;2024-02-04T10:26:47;98056.75;;;7.42;100.00
5062;BME280;2351;50.812;12.872;2024-02-04T10:29:19;98043.34;;;7.45;100.00
5062;BME280;2351;50.812;12.872;2024-02-04T10:31:54;98041.25;;;7.50;100.00
5062;BME280;2351;50.812;12.872;2024-02-04T10:34:27;98040.91;;;7.54;100.00
5062;BME280;2351;50.812;12.872;2024-02-04T10:37:00;98029.41;;;7.56;100.00
5062;BME280;2351;50.812;12.872;2024-02-04T10:39:32;98021.72;;;7.52;100.00
5062;BME280;2351;50.812;12.872;2024-02-04T10:42:04;98022.56;;;7.53;100.00
5062;BME280;2351;50.812;12.872;2024-02-04T10:44:36;98011.28;;;7.51;100.00
5062;BME280;2351;50.812;12.872;2024-02-04T10:47:16;98006.16;;;7.49;100.00
5062;BME280;2351;50.812;12.872;2024-02-04T10:49:52;98008.44;;;7.54;100.00
5062;BME280;2351;50.812;12.872;2024-02-04T10:52:27;98011.81;;;7.56;100.00
5062;BME280;2351;50.812;12.872;2024-02-04T10:54:59;98004.97;;;7.53;100.00
5062;BME280;2351;50.812;12.872;2024-02-04T10:57:31;97995.19;;;7.56;100.00
5062;BME280;2351;50.812;12.872;2024-02-04T11:00:03;98001.06;;;7.59;100.00
5062;BME280;2351;50.812;12.872;2024-02-04T11:02:40;97990.28;;;7.62;100.00
5062;BME280;2351;50.812;12.872;2024-02-04T11:05:17;97986.00;;;7.73;100.00
5062;BME280;2351;50.812;12.872;2024-02-04T11:07:49;97967.03;;;7.80;100.00
5062;BME280;2351;50.812;12.872;2024-02-04T11:10:22;97974.69;;;7.83;100.00
5062;BME280;2351;50.812;12.872;2024-02-04T11:12:55;97977.31;;;7.83;100.00
5062;BME280;2351;50.812;12.872;2024-02-04T11:15:31;97975.66;;;7.82;100.00
5062;BME280;2351;50.812;12.872;2024-02-04T11:18:29;97969.88;;;7.77;100.00
5062;BME280;2351;50.812;12.872;2024-02-04T11:24:22;97956.50;;;7.80;100.00
5062;BME280;2351;50.812;12.872;2024-02-04T11:26:57;97958.16;;;7.81;100.00
5062;BME280;2351;50.812;12.872;2024-02-04T11:29:29;97952.66;;;7.84;100.00
5062;BME280;2351;50.812;12.872;2024-02-04T11:32:01;97945.38;;;7.88;100.00
5062;BME280;2351;50.812;12.872;2024-02-04T11:34:35;97957.59;;;7.89;100.00
5062;BME280;2351;50.812;12.872;2024-02-04T11:37:15;97962.63;;;7.92;100.00
5062;BME280;2351;50.812;12.872;2024-02-04T11:39:50;97957.00;;;7.97;100.00
5062;BME280;2351;50.812;12.872;2024-02-04T11:42:23;97952.56;;;7.97;100.00
5062;BME280;2351;50.812;12.872;2024-02-04T11:45:06;97964.78;;;7.98;100.00
5062;BME280;2351;50.812;12.872;2024-02-04T11:47:38;97946.25;;;8.00;100.00
5062;BME280;2351;50.812;12.872;2024-02-04T11:50:11;97942.97;;;7.96;100.00
5062;BME280;2351;50.812;12.872;2024-02-04T11:52:43;97950.88;;;7.96;100.00
5062;BME280;2351;50.812;12.872;2024-02-04T11:55:15;97959.38;;;7.89;100.00
5062;BME280;2351;50.812;12.872;2024-02-04T11:57:48;97949.06;;;7.86;100.00
5062;BME280;2351;50.812;12.872;2024-02-04T12:00:20;97952.66;;;7.84;100.00
5062;BME280;2351;50.812;12.872;2024-02-04T12:03:00;97954.59;;;7.82;100.00
5062;BME280;2351;50.812;12.872;2024-02-04T12:05:35;97959.00;;;7.82;100.00
5062;BME280;2351;50.812;12.872;2024-02-04T12:08:07;97944.13;;;7.81;100.00
5062;BME280;2351;50.812;12.872;2024-02-04T12:10:39;97946.03;;;7.79;100.00
5062;BME280;2351;50.812;12.872;2024-02-04T12:13:11;97940.91;;;7.77;100.00
5062;BME280;2351;50.812;12.872;2024-02-04T12:15:43;97951.66;;;7.74;100.00
5062;BME280;2351;50.812;12.872;2024-02-04T12:18:16;97941.34;;;7.71;100.00
5062;BME280;2351;50.812;12.872;2024-02-04T12:20:51;97938.72;;;7.71;100.00
5062;BME280;2351;50.812;12.872;2024-02-04T12:23:23;97953.69;;;7.71;100.00
5062;BME280;2351;50.812;12.872;2024-02-04T12:25:56;97931.16;;;7.66;100.00
5062;BME280;2351;50.812;12.872;2024-02-04T12:28:28;97930.31;;;7.66;100.00
5062;BME280;2351;50.812;12.872;2024-02-04T12:30:59;97936.53;;;7.65;100.00
5062;BME280;2351;50.812;12.872;2024-02-04T12:33:31;97964.78;;;7.63;100.00
5062;BME280;2351;50.812;12.872;2024-02-04T12:36:05;97951.84;;;7.60;100.00
5062;BME280;2351;50.812;12.872;2024-02-04T12:38:37;97936.38;;;7.55;100.00
5062;BME280;2351;50.812;12.872;2024-02-04T12:41:12;97934.09;;;7.50;100.00
5062;BME280;2351;50.812;12.872;2024-02-04T12:43:49;97941.47;;;7.45;100.00
5062;BME280;2351;50.812;12.872;2024-02-04T12:46:22;97921.72;;;7.39;100.00
5062;BME280;2351;50.812;12.872;2024-02-04T12:48:55;97935.09;;;7.36;100.00
5062;BME280;2351;50.812;12.872;2024-02-04T12:51:29;97930.78;;;7.35;100.00
5062;BME280;2351;50.812;12.872;2024-02-04T12:54:05;97928.16;;;7.35;100.00
5062;BME280;2351;50.812;12.872;2024-02-04T12:56:45;97927.09;;;7.38;100.00
5062;BME280;2351;50.812;12.872;2024-02-04T12:59:24;97933.59;;;7.45;100.00
5062;BME280;2351;50.812;12.872;2024-02-04T13:01:57;97934.53;;;7.44;100.00
5062;BME280;2351;50.812;12.872;2024-02-04T13:04:33;97936.34;;;7.44;100.00
5062;BME280;2351;50.812;12.872;2024-02-04T13:07:08;97927.59;;;7.43;100.00
5062;BME280;2351;50.812;12.872;2024-02-04T13:09:41;97927.81;;;7.40;100.00
5062;BME280;2351;50.812;12.872;2024-02-04T13:12:14;97928.06;;;7.37;100.00
5062;BME280;2351;50.812;12.872;2024-02-04T13:14:47;97916.56;;;7.38;100.00
5062;BME280;2351;50.812;12.872;2024-02-04T13:17:19;97919.81;;;7.42;100.00
5062;BME280;2351;50.812;12.872;2024-02-04T13:19:50;97913.69;;;7.41;100.00
5062;BME280;2351;50.812;12.872;2024-02-04T13:22:23;97923.41;;;7.41;100.00
5062;BME280;2351;50.812;12.872;2024-02-04T13:24:55;97928.06;;;7.37;100.00
5062;BME280;2351;50.812;12.872;2024-02-04T13:27:27;97926.59;;;7.33;100.00
5062;BME280;2351;50.812;12.872;2024-02-04T13:29:59;97921.53;;;7.30;100.00
5062;BME280;2351;50.812;12.872;2024-02-04T13:32:30;97930.53;;;7.27;100.00
5062;BME280;2351;50.812;12.872;2024-02-04T13:35:02;97934.19;;;7.24;100.00
5062;BME280;2351;50.812;12.872;2024-02-04T13:37:35;97932.63;;;7.22;100.00
5062;BME280;2351;50.812;12.872;2024-02-04T13:40:08;97931.91;;;7.20;100.00
5062;BME280;2351;50.812;12.872;2024-02-04T13:42:41;97919.91;;;7.16;100.00